sensor_id;sensor_type;location;lat;lon;timestamp;P1;durP1;ratioP1;P2;durP2;ratioP2
54247;SDS011;40161;39.768;2.722;2023-04-24T05:27:20;5.68;;;2.03;;
54247;SDS011;40161;39.768;2.722;2023-04-24T05:29:46;5.20;;;2.17;;
54247;SDS011;40161;39.768;2.722;2023-04-24T05:32:11;6.95;;;2.45;;
54247;SDS011;40161;39.768;2.722;2023-04-24T05:34:37;3.35;;;1.60;;
54247;SDS011;40161;39.768;2.722;2023-04-24T05:37:02;5.20;;;1.52;;
54247;SDS011;40161;39.768;2.722;2023-04-24T05:39:28;6.82;;;2.08;;
54247;SDS011;40161;39.768;2.722;2023-04-24T05:41:54;5.78;;;2.00;;
54247;SDS011;40161;39.768;2.722;2023-04-24T05:44:22;8.32;;;2.15;;
54247;SDS011;40161;39.768;2.722;2023-04-24T05:46:48;5.35;;;1.70;;
54247;SDS011;40161;39.768;2.722;2023-04-24T05:49:14;5.70;;;1.75;;
54247;SDS011;40161;39.768;2.722;2023-04-24T05:51:39;12.30;;;2.17;;
54247;SDS011;40161;39.768;2.722;2023-04-24T05:54:05;13.52;;;3.05;;
54247;SDS011;40161;39.768;2.722;2023-04-24T05:56:30;11.88;;;2.22;;
54247;SDS011;40161;39.768;2.722;2023-04-24T05:58:56;13.98;;;9.00;;
54247;SDS011;40161;39.768;2.722;2023-04-24T06:01:21;8.75;;;3.78;;
54247;SDS011;40161;39.768;2.722;2023-04-24T06:03:47;8.82;;;2.97;;
54247;SDS011;40161;39.768;2.722;2023-04-24T06:06:20;12.40;;;3.20;;
54247;SDS011;40161;39.768;2.722;2023-04-24T06:08:46;117.57;;;11.68;;
54247;SDS011;40161;39.768;2.722;2023-04-24T06:11:11;227.88;;;24.80;;
54247;SDS011;40161;39.768;2.722;2023-04-24T06:13:37;8.02;;;2.60;;
54247;SDS011;40161;39.768;2.722;2023-04-24T06:16:08;10.52;;;2.30;;
54247;SDS011;40161;39.768;2.722;2023-04-24T06:18:34;10.45;;;2.80;;
54247;SDS011;40161;39.768;2.722;2023-04-24T06:47:51;6.38;;;1.92;;
54247;SDS011;40161;39.768;2.722;2023-04-24T06:50:16;7.63;;;1.88;;
54247;SDS011;40161;39.768;2.722;2023-04-24T06:52:42;17.20;;;3.15;;
54247;SDS011;40161;39.768;2.722;2023-04-24T06:55:09;6.40;;;1.80;;
54247;SDS011;40161;39.768;2.722;2023-04-24T06:57:36;8.75;;;2.05;;
54247;SDS011;40161;39.768;2.722;2023-04-24T07:00:02;10.15;;;2.30;;
54247;SDS011;40161;39.768;2.722;2023-04-24T07:02:30;6.85;;;2.63;;
54247;SDS011;40161;39.768;2.722;2023-04-24T07:04:55;7.57;;;2.80;;
54247;SDS011;40161;39.768;2.722;2023-04-24T07:07:22;7.68;;;2.53;;
54247;SDS011;40161;39.768;2.722;2023-04-24T07:19:05;9.52;;;5.95;;
54247;SDS011;40161;39.768;2.722;2023-04-24T07:21:31;9.93;;;5.95;;
54247;SDS011;40161;39.768;2.722;2023-04-24T07:23:59;9.30;;;5.45;;
54247;SDS011;40161;39.768;2.722;2023-04-24T07:26:25;10.05;;;5.70;;
54247;SDS011;40161;39.768;2.722;2023-04-24T07:28:52;29.13;;;17.88;;
54247;SDS011;40161;39.768;2.722;2023-04-24T07:31:18;28.27;;;17.75;;
54247;SDS011;40161;39.768;2.722;2023-04-24T07:33:43;16.63;;;10.30;;
54247;SDS011;40161;39.768;2.722;2023-04-24T07:36:09;7.72;;;4.72;;
54247;SDS011;40161;39.768;2.722;2023-04-24T07:38:40;7.55;;;3.42;;
54247;SDS011;40161;39.768;2.722;2023-04-24T07:41:07;6.63;;;2.60;;
54247;SDS011;40161;39.768;2.722;2023-04-24T07:43:32;4.85;;;2.40;;
54247;SDS011;40161;39.768;2.722;2023-04-24T07:45:58;6.78;;;2.80;;
54247;SDS011;40161;39.768;2.722;2023-04-24T07:48:24;5.78;;;3.10;;
54247;SDS011;40161;39.768;2.722;2023-04-24T07:50:51;7.60;;;3.08;;
54247;SDS011;40161;39.768;2.722;2023-04-24T07:53:17;7.28;;;2.60;;
54247;SDS011;40161;39.768;2.722;2023-04-24T07:55:42;5.88;;;2.75;;
54247;SDS011;40161;39.768;2.722;2023-04-24T07:58:08;7.40;;;3.38;;
54247;SDS011;40161;39.768;2.722;2023-04-24T08:00:34;5.78;;;2.83;;
54247;SDS011;40161;39.768;2.722;2023-04-24T08:02:59;5.90;;;2.33;;
54247;SDS011;40161;39.768;2.722;2023-04-24T08:05:25;6.53;;;2.60;;
54247;SDS011;40161;39.768;2.722;2023-04-24T08:07:52;8.18;;;2.53;;
54247;SDS011;40161;39.768;2.722;2023-04-24T08:10:18;6.88;;;2.45;;
54247;SDS011;40161;39.768;2.722;2023-04-24T08:12:43;5.38;;;2.30;;
54247;SDS011;40161;39.768;2.722;2023-04-24T08:15:09;7.07;;;2.60;;
54247;SDS011;40161;39.768;2.722;2023-04-24T08:17:35;8.05;;;2.55;;
54247;SDS011;40161;39.768;2.722;2023-04-24T08:20:01;6.88;;;2.53;;
54247;SDS011;40161;39.768;2.722;2023-04-24T08:22:30;9.05;;;2.85;;
54247;SDS011;40161;39.768;2.722;2023-04-24T08:24:56;8.20;;;2.83;;
54247;SDS011;40161;39.768;2.722;2023-04-24T08:27:22;7.82;;;2.85;;
54247;SDS011;40161;39.768;2.722;2023-04-24T08:29:48;7.70;;;3.42;;
54247;SDS011;40161;39.768;2.722;2023-04-24T08:32:14;8.18;;;3.13;;
54247;SDS011;40161;39.768;2.722;2023-04-24T08:34:40;7.47;;;3.15;;
54247;SDS011;40161;39.768;2.722;2023-04-24T08:37:05;5.72;;;2.70;;
54247;SDS011;40161;39.768;2.722;2023-04-24T08:39:31;10.02;;;3.50;;
54247;SDS011;40161;39.768;2.722;2023-04-24T08:41:57;9.02;;;3.08;;
54247;SDS011;40161;39.768;2.722;2023-04-24T08:44:30;7.38;;;3.08;;
54247;SDS011;40161;39.768;2.722;2023-04-24T08:46:57;7.78;;;3.55;;
54247;SDS011;40161;39.768;2.722;2023-04-24T08:49:23;7.55;;;2.85;;
54247;SDS011;40161;39.768;2.722;2023-04-24T08:51:50;8.25;;;3.10;;
54247;SDS011;40161;39.768;2.722;2023-04-24T08:54:18;7.55;;;3.30;;
54247;SDS011;40161;39.768;2.722;2023-04-24T08:56:44;9.50;;;3.25;;
54247;SDS011;40161;39.768;2.722;2023-04-24T08:59:10;8.57;;;3.30;;
54247;SDS011;40161;39.768;2.722;2023-04-24T09:01:36;7.03;;;2.92;;
54247;SDS011;40161;39.768;2.722;2023-04-24T09:04:04;8.20;;;3.25;;
54247;SDS011;40161;39.768;2.722;2023-04-24T09:06:32;9.05;;;3.53;;
54247;SDS011;40161;39.768;2.722;2023-04-24T09:09:00;9.57;;;3.55;;
54247;SDS011;40161;39.768;2.722;2023-04-24T09:11:26;8.23;;;2.80;;
54247;SDS011;40161;39.768;2.722;2023-04-24T09:13:56;6.80;;;2.80;;
54247;SDS011;40161;39.768;2.722;2023-04-24T09:16:21;7.07;;;2.97;;
54247;SDS011;40161;39.768;2.722;2023-04-24T09:18:49;7.90;;;3.20;;
54247;SDS011;40161;39.768;2.722;2023-04-24T09:21:15;5.43;;;2.95;;
54247;SDS011;40161;39.768;2.722;2023-04-24T09:23:41;10.65;;;3.20;;
54247;SDS011;40161;39.768;2.722;2023-04-24T09:26:06;6.05;;;2.83;;
54247;SDS011;40161;39.768;2.722;2023-04-24T09:28:35;7.82;;;3.67;;
54247;SDS011;40161;39.768;2.722;2023-04-24T09:31:15;9.85;;;2.95;;
54247;SDS011;40161;39.768;2.722;2023-04-24T09:33:57;8.48;;;3.08;;
54247;SDS011;40161;39.768;2.722;2023-04-24T09:38:58;8.95;;;3.15;;
54247;SDS011;40161;39.768;2.722;2023-04-24T09:41:24;6.20;;;2.50;;
54247;SDS011;40161;39.768;2.722;2023-04-24T09:43:53;7.78;;;3.10;;
54247;SDS011;40161;39.768;2.722;2023-04-24T09:46:19;7.95;;;2.80;;
54247;SDS011;40161;39.768;2.722;2023-04-24T09:48:46;10.25;;;3.13;;
54247;SDS011;40161;39.768;2.722;2023-04-24T09:51:12;10.70;;;4.10;;
54247;SDS011;40161;39.768;2.722;2023-04-24T09:53:38;8.35;;;3.20;;
54247;SDS011;40161;39.768;2.722;2023-04-24T09:56:07;7.70;;;2.80;;
54247;SDS011;40161;39.768;2.722;2023-04-24T10:18:10;9.52;;;2.67;;
54247;SDS011;40161;39.768;2.722;2023-04-24T10:20:36;6.75;;;2.83;;
54247;SDS011;40161;39.768;2.722;2023-04-24T10:23:04;6.18;;;2.90;;
54247;SDS011;40161;39.768;2.722;2023-04-24T10:25:30;7.57;;;2.63;;
54247;SDS011;40161;39.768;2.722;2023-04-24T10:27:59;9.45;;;3.13;;
54247;SDS011;40161;39.768;2.722;2023-04-24T10:30:27;8.25;;;2.70;;
54247;SDS011;40161;39.768;2.722;2023-04-24T10:32:54;6.70;;;2.92;;
54247;SDS011;40161;39.768;2.722;2023-04-24T10:35:19;8.75;;;4.60;;
54247;SDS011;40161;39.768;2.722;2023-04-24T10:37:53;7.53;;;2.80;;
54247;SDS011;40161;39.768;2.722;2023-04-24T10:40:29;6.85;;;2.60;;
54247;SDS011;40161;39.768;2.722;2023-04-24T10:42:57;5.45;;;2.80;;
54247;SDS011;40161;39.768;2.722;2023-04-24T10:45:23;8.18;;;2.47;;
54247;SDS011;40161;39.768;2.722;2023-04-24T10:50:29;7.10;;;2.70;;
54247;SDS011;40161;39.768;2.722;2023-04-24T10:53:07;7.90;;;2.75;;
54247;SDS011;40161;39.768;2.722;2023-04-24T10:58:08;9.85;;;3.90;;
54247;SDS011;40161;39.768;2.722;2023-04-24T11:00:36;11.30;;;3.10;;
54247;SDS011;40161;39.768;2.722;2023-04-24T11:03:25;6.45;;;2.95;;
54247;SDS011;40161;39.768;2.722;2023-04-24T11:05:51;8.60;;;3.03;;
54247;SDS011;40161;39.768;2.722;2023-04-24T11:08:46;11.23;;;4.00;;
54247;SDS011;40161;39.768;2.722;2023-04-24T11:11:15;5.90;;;2.67;;
54247;SDS011;40161;39.768;2.722;2023-04-24T11:16:30;6.97;;;2.75;;
54247;SDS011;40161;39.768;2.722;2023-04-24T11:19:01;6.55;;;2.70;;
54247;SDS011;40161;39.768;2.722;2023-04-24T11:24:28;8.20;;;2.80;;
54247;SDS011;40161;39.768;2.722;2023-04-24T11:26:58;6.93;;;2.55;;
54247;SDS011;40161;39.768;2.722;2023-04-24T11:32:24;8.48;;;2.90;;
54247;SDS011;40161;39.768;2.722;2023-04-24T11:37:41;6.97;;;2.47;;
54247;SDS011;40161;39.768;2.722;2023-04-24T11:40:09;7.32;;;2.60;;
54247;SDS011;40161;39.768;2.722;2023-04-24T11:42:39;6.78;;;2.55;;
54247;SDS011;40161;39.768;2.722;2023-04-24T11:45:15;7.43;;;2.60;;
54247;SDS011;40161;39.768;2.722;2023-04-24T11:47:43;5.72;;;2.65;;
54247;SDS011;40161;39.768;2.722;2023-04-24T11:50:13;5.28;;;2.90;;
54247;SDS011;40161;39.768;2.722;2023-04-24T11:52:40;6.37;;;2.23;;
54247;SDS011;40161;39.768;2.722;2023-04-24T11:57:38;9.27;;;3.00;;
54247;SDS011;40161;39.768;2.722;2023-04-24T12:00:04;7.13;;;2.65;;
54247;SDS011;40161;39.768;2.722;2023-04-24T12:02:30;7.00;;;2.67;;
54247;SDS011;40161;39.768;2.722;2023-04-24T12:04:56;8.30;;;2.53;;
54247;SDS011;40161;39.768;2.722;2023-04-24T12:07:22;6.32;;;2.00;;
54247;SDS011;40161;39.768;2.722;2023-04-24T12:09:58;7.53;;;3.10;;
54247;SDS011;40161;39.768;2.722;2023-04-24T12:12:27;8.70;;;3.15;;
54247;SDS011;40161;39.768;2.722;2023-04-24T12:14:54;7.93;;;3.30;;
54247;SDS011;40161;39.768;2.722;2023-04-24T12:17:28;9.65;;;2.80;;
54247;SDS011;40161;39.768;2.722;2023-04-24T12:20:05;8.00;;;2.60;;
54247;SDS011;40161;39.768;2.722;2023-04-24T12:22:45;8.85;;;2.90;;
54247;SDS011;40161;39.768;2.722;2023-04-24T12:25:25;10.57;;;4.05;;
54247;SDS011;40161;39.768;2.722;2023-04-24T12:27:53;6.75;;;2.88;;
54247;SDS011;40161;39.768;2.722;2023-04-24T12:30:20;6.13;;;2.60;;
54247;SDS011;40161;39.768;2.722;2023-04-24T12:32:51;8.32;;;2.45;;
54247;SDS011;40161;39.768;2.722;2023-04-24T12:35:20;9.32;;;2.40;;
54247;SDS011;40161;39.768;2.722;2023-04-24T12:37:47;8.07;;;2.80;;
54247;SDS011;40161;39.768;2.722;2023-04-24T12:40:13;11.10;;;3.63;;
54247;SDS011;40161;39.768;2.722;2023-04-24T12:42:43;7.55;;;2.75;;
54247;SDS011;40161;39.768;2.722;2023-04-24T12:45:11;9.88;;;2.95;;
54247;SDS011;40161;39.768;2.722;2023-04-24T12:47:37;7.82;;;2.72;;
54247;SDS011;40161;39.768;2.722;2023-04-24T12:50:04;8.98;;;2.95;;
54247;SDS011;40161;39.768;2.722;2023-04-24T12:52:31;7.18;;;2.25;;
54247;SDS011;40161;39.768;2.722;2023-04-24T12:54:57;6.88;;;2.80;;
54247;SDS011;40161;39.768;2.722;2023-04-24T12:57:24;7.45;;;2.88;;
54247;SDS011;40161;39.768;2.722;2023-04-24T12:59:53;7.38;;;2.72;;
54247;SDS011;40161;39.768;2.722;2023-04-24T13:02:23;7.85;;;2.70;;
54247;SDS011;40161;39.768;2.722;2023-04-24T13:04:50;7.32;;;2.35;;
54247;SDS011;40161;39.768;2.722;2023-04-24T13:07:16;6.28;;;2.38;;
54247;SDS011;40161;39.768;2.722;2023-04-24T13:09:42;7.93;;;2.60;;
54247;SDS011;40161;39.768;2.722;2023-04-24T13:12:09;7.30;;;2.65;;
54247;SDS011;40161;39.768;2.722;2023-04-24T13:14:35;9.05;;;2.50;;
54247;SDS011;40161;39.768;2.722;2023-04-24T13:17:01;8.05;;;2.78;;
54247;SDS011;40161;39.768;2.722;2023-04-24T13:19:27;7.50;;;2.22;;
54247;SDS011;40161;39.768;2.722;2023-04-24T13:21:54;8.77;;;2.70;;
54247;SDS011;40161;39.768;2.722;2023-04-24T13:24:21;9.38;;;2.42;;
54247;SDS011;40161;39.768;2.722;2023-04-24T13:26:51;8.18;;;2.28;;
54247;SDS011;40161;39.768;2.722;2023-04-24T13:29:17;6.70;;;2.40;;
54247;SDS011;40161;39.768;2.722;2023-04-24T13:31:43;7.70;;;2.13;;
54247;SDS011;40161;39.768;2.722;2023-04-24T14:16:46;7.22;;;1.98;;
54247;SDS011;40161;39.768;2.722;2023-04-24T14:19:11;6.32;;;1.70;;
54247;SDS011;40161;39.768;2.722;2023-04-24T14:21:37;4.15;;;1.60;;
54247;SDS011;40161;39.768;2.722;2023-04-24T14:24:02;3.97;;;1.58;;
54247;SDS011;40161;39.768;2.722;2023-04-24T14:26:28;5.03;;;1.85;;
54247;SDS011;40161;39.768;2.722;2023-04-24T14:28:53;5.88;;;1.80;;
54247;SDS011;40161;39.768;2.722;2023-04-24T14:31:20;7.07;;;2.30;;
54247;SDS011;40161;39.768;2.722;2023-04-24T14:33:45;5.80;;;2.00;;
54247;SDS011;40161;39.768;2.722;2023-04-24T14:36:11;4.45;;;2.03;;
54247;SDS011;40161;39.768;2.722;2023-04-24T14:38:41;3.65;;;1.35;;
54247;SDS011;40161;39.768;2.722;2023-04-24T15:21:19;4.70;;;1.40;;
54247;SDS011;40161;39.768;2.722;2023-04-24T15:23:44;4.68;;;1.30;;
54247;SDS011;40161;39.768;2.722;2023-04-24T15:26:10;1.90;;;0.70;;
54247;SDS011;40161;39.768;2.722;2023-04-24T15:28:35;3.28;;;1.02;;
54247;SDS011;40161;39.768;2.722;2023-04-24T15:31:01;2.72;;;0.90;;
54247;SDS011;40161;39.768;2.722;2023-04-24T15:33:26;3.63;;;0.95;;
54247;SDS011;40161;39.768;2.722;2023-04-24T15:35:52;1.90;;;0.80;;
54247;SDS011;40161;39.768;2.722;2023-04-24T15:38:17;3.90;;;0.90;;
54247;SDS011;40161;39.768;2.722;2023-04-24T15:40:43;3.65;;;1.05;;
54247;SDS011;40161;39.768;2.722;2023-04-24T15:43:09;3.97;;;1.20;;
54247;SDS011;40161;39.768;2.722;2023-04-24T15:45:35;2.72;;;1.02;;
54247;SDS011;40161;39.768;2.722;2023-04-24T15:48:01;4.55;;;1.67;;
54247;SDS011;40161;39.768;2.722;2023-04-24T15:50:27;6.00;;;1.60;;
54247;SDS011;40161;39.768;2.722;2023-04-24T15:52:53;4.97;;;1.90;;
54247;SDS011;40161;39.768;2.722;2023-04-24T15:55:18;7.63;;;2.00;;
54247;SDS011;40161;39.768;2.722;2023-04-24T15:57:44;4.78;;;1.55;;
54247;SDS011;40161;39.768;2.722;2023-04-24T16:00:09;5.30;;;1.98;;
54247;SDS011;40161;39.768;2.722;2023-04-24T16:02:36;3.72;;;1.45;;
54247;SDS011;40161;39.768;2.722;2023-04-24T16:05:01;3.42;;;1.38;;
54247;SDS011;40161;39.768;2.722;2023-04-24T16:07:27;3.75;;;1.30;;
54247;SDS011;40161;39.768;2.722;2023-04-24T16:09:52;4.00;;;1.30;;
54247;SDS011;40161;39.768;2.722;2023-04-24T16:12:18;3.22;;;1.50;;
54247;SDS011;40161;39.768;2.722;2023-04-24T16:14:44;6.43;;;1.40;;
54247;SDS011;40161;39.768;2.722;2023-04-24T16:17:09;5.30;;;1.77;;
54247;SDS011;40161;39.768;2.722;2023-04-24T16:19:35;6.15;;;1.80;;
54247;SDS011;40161;39.768;2.722;2023-04-24T16:22:00;5.70;;;1.50;;
54247;SDS011;40161;39.768;2.722;2023-04-24T16:24:27;5.00;;;1.83;;
54247;SDS011;40161;39.768;2.722;2023-04-24T16:26:53;5.15;;;1.40;;
54247;SDS011;40161;39.768;2.722;2023-04-24T16:29:20;5.10;;;2.05;;
54247;SDS011;40161;39.768;2.722;2023-04-24T16:31:45;6.60;;;1.70;;
54247;SDS011;40161;39.768;2.722;2023-04-24T16:34:11;5.40;;;1.67;;
54247;SDS011;40161;39.768;2.722;2023-04-24T16:36:37;4.88;;;1.90;;
54247;SDS011;40161;39.768;2.722;2023-04-24T16:39:02;4.85;;;1.85;;
54247;SDS011;40161;39.768;2.722;2023-04-24T16:41:31;4.65;;;1.38;;
54247;SDS011;40161;39.768;2.722;2023-04-24T16:43:57;5.30;;;1.40;;
54247;SDS011;40161;39.768;2.722;2023-04-24T16:46:22;3.72;;;1.30;;
54247;SDS011;40161;39.768;2.722;2023-04-24T16:48:48;4.88;;;1.25;;
54247;SDS011;40161;39.768;2.722;2023-04-24T16:51:13;2.67;;;1.00;;
54247;SDS011;40161;39.768;2.722;2023-04-24T16:53:39;3.38;;;1.13;;
54247;SDS011;40161;39.768;2.722;2023-04-24T16:56:04;2.75;;;0.90;;
54247;SDS011;40161;39.768;2.722;2023-04-24T16:58:30;1.70;;;0.70;;
54247;SDS011;40161;39.768;2.722;2023-04-24T17:00:56;2.00;;;0.70;;
54247;SDS011;40161;39.768;2.722;2023-04-24T17:03:22;3.15;;;0.70;;
54247;SDS011;40161;39.768;2.722;2023-04-24T17:05:47;1.45;;;0.82;;
54247;SDS011;40161;39.768;2.722;2023-04-24T17:08:13;2.42;;;0.82;;
54247;SDS011;40161;39.768;2.722;2023-04-24T17:10:39;2.08;;;0.80;;
54247;SDS011;40161;39.768;2.722;2023-04-24T17:13:05;1.80;;;0.88;;
54247;SDS011;40161;39.768;2.722;2023-04-24T17:15:31;4.45;;;0.90;;
54247;SDS011;40161;39.768;2.722;2023-04-24T17:17:57;1.70;;;0.80;;
54247;SDS011;40161;39.768;2.722;2023-04-24T17:20:23;3.83;;;1.30;;
54247;SDS011;40161;39.768;2.722;2023-04-24T17:22:48;3.58;;;0.90;;
54247;SDS011;40161;39.768;2.722;2023-04-24T17:25:14;3.22;;;0.80;;
54247;SDS011;40161;39.768;2.722;2023-04-24T17:27:40;3.00;;;1.05;;
54247;SDS011;40161;39.768;2.722;2023-04-24T17:30:05;3.13;;;1.00;;
54247;SDS011;40161;39.768;2.722;2023-04-24T17:32:31;2.40;;;0.98;;
54247;SDS011;40161;39.768;2.722;2023-04-24T17:34:57;3.80;;;1.50;;
54247;SDS011;40161;39.768;2.722;2023-04-24T17:37:23;4.28;;;1.00;;
54247;SDS011;40161;39.768;2.722;2023-04-24T17:39:49;3.05;;;0.90;;
54247;SDS011;40161;39.768;2.722;2023-04-24T17:42:15;2.35;;;0.98;;
54247;SDS011;40161;39.768;2.722;2023-04-24T17:44:40;3.42;;;1.10;;
54247;SDS011;40161;39.768;2.722;2023-04-24T17:47:06;3.40;;;0.93;;
54247;SDS011;40161;39.768;2.722;2023-04-24T17:49:32;2.78;;;1.00;;
54247;SDS011;40161;39.768;2.722;2023-04-24T17:51:58;3.42;;;0.93;;
54247;SDS011;40161;39.768;2.722;2023-04-24T17:54:23;2.33;;;0.93;;
54247;SDS011;40161;39.768;2.722;2023-04-24T17:56:49;2.20;;;0.95;;
54247;SDS011;40161;39.768;2.722;2023-04-24T17:59:17;3.47;;;0.80;;
54247;SDS011;40161;39.768;2.722;2023-04-24T18:01:43;2.47;;;0.80;;
54247;SDS011;40161;39.768;2.722;2023-04-24T18:04:09;4.78;;;1.10;;
54247;SDS011;40161;39.768;2.722;2023-04-24T18:06:35;1.48;;;0.75;;
54247;SDS011;40161;39.768;2.722;2023-04-24T18:09:00;2.75;;;0.98;;
54247;SDS011;40161;39.768;2.722;2023-04-24T18:11:26;3.80;;;1.15;;
54247;SDS011;40161;39.768;2.722;2023-04-24T18:13:53;2.60;;;1.33;;
54247;SDS011;40161;39.768;2.722;2023-04-24T18:16:18;6.53;;;1.90;;
54247;SDS011;40161;39.768;2.722;2023-04-24T18:18:44;5.65;;;1.88;;
54247;SDS011;40161;39.768;2.722;2023-04-24T18:21:09;5.85;;;1.60;;
54247;SDS011;40161;39.768;2.722;2023-04-24T18:23:35;6.28;;;1.70;;
54247;SDS011;40161;39.768;2.722;2023-04-24T18:26:00;7.72;;;2.40;;
54247;SDS011;40161;39.768;2.722;2023-04-24T18:28:26;8.10;;;2.53;;
54247;SDS011;40161;39.768;2.722;2023-04-24T18:30:55;5.43;;;1.92;;
54247;SDS011;40161;39.768;2.722;2023-04-24T18:33:22;6.65;;;2.20;;
54247;SDS011;40161;39.768;2.722;2023-04-24T18:35:47;4.72;;;2.13;;
54247;SDS011;40161;39.768;2.722;2023-04-24T18:38:13;4.72;;;2.00;;
54247;SDS011;40161;39.768;2.722;2023-04-24T18:40:38;7.18;;;2.85;;
54247;SDS011;40161;39.768;2.722;2023-04-24T18:43:04;7.13;;;3.08;;
54247;SDS011;40161;39.768;2.722;2023-04-24T18:45:30;5.35;;;2.38;;
54247;SDS011;40161;39.768;2.722;2023-04-24T18:47:56;5.18;;;2.65;;
54247;SDS011;40161;39.768;2.722;2023-04-24T18:50:21;6.70;;;3.45;;
54247;SDS011;40161;39.768;2.722;2023-04-24T18:52:49;7.38;;;3.60;;
54247;SDS011;40161;39.768;2.722;2023-04-24T18:55:15;10.10;;;4.00;;
54247;SDS011;40161;39.768;2.722;2023-04-24T18:57:40;23.88;;;12.45;;
54247;SDS011;40161;39.768;2.722;2023-04-24T19:00:06;15.38;;;9.65;;
54247;SDS011;40161;39.768;2.722;2023-04-24T19:02:32;15.52;;;9.00;;
54247;SDS011;40161;39.768;2.722;2023-04-24T19:04:58;12.82;;;7.22;;
54247;SDS011;40161;39.768;2.722;2023-04-24T19:07:24;12.65;;;6.50;;
54247;SDS011;40161;39.768;2.722;2023-04-24T19:09:49;12.93;;;8.60;;
54247;SDS011;40161;39.768;2.722;2023-04-24T19:12:15;14.55;;;9.48;;
54247;SDS011;40161;39.768;2.722;2023-04-24T19:14:41;17.77;;;9.77;;
54247;SDS011;40161;39.768;2.722;2023-04-24T19:17:06;13.20;;;8.15;;
54247;SDS011;40161;39.768;2.722;2023-04-24T19:19:34;16.73;;;9.05;;
54247;SDS011;40161;39.768;2.722;2023-04-24T19:22:00;18.70;;;12.77;;
54247;SDS011;40161;39.768;2.722;2023-04-24T19:24:26;22.00;;;13.70;;
54247;SDS011;40161;39.768;2.722;2023-04-24T19:26:53;16.48;;;8.90;;
54247;SDS011;40161;39.768;2.722;2023-04-24T19:29:20;11.00;;;5.10;;
54247;SDS011;40161;39.768;2.722;2023-04-24T19:31:46;11.02;;;5.40;;
54247;SDS011;40161;39.768;2.722;2023-04-24T19:34:11;12.73;;;6.65;;
54247;SDS011;40161;39.768;2.722;2023-04-24T19:36:37;17.67;;;9.40;;
54247;SDS011;40161;39.768;2.722;2023-04-24T19:39:02;16.05;;;9.77;;
54247;SDS011;40161;39.768;2.722;2023-04-24T19:41:28;16.65;;;10.05;;
54247;SDS011;40161;39.768;2.722;2023-04-24T19:43:54;18.67;;;9.57;;
54247;SDS011;40161;39.768;2.722;2023-04-24T19:46:19;19.13;;;10.55;;
54247;SDS011;40161;39.768;2.722;2023-04-24T19:48:45;17.10;;;9.60;;
54247;SDS011;40161;39.768;2.722;2023-04-24T19:51:11;20.35;;;10.90;;
54247;SDS011;40161;39.768;2.722;2023-04-24T19:53:36;29.60;;;15.52;;
54247;SDS011;40161;39.768;2.722;2023-04-24T19:56:02;26.13;;;13.25;;
54247;SDS011;40161;39.768;2.722;2023-04-24T19:58:27;17.17;;;9.55;;
54247;SDS011;40161;39.768;2.722;2023-04-24T20:00:55;14.65;;;6.50;;
54247;SDS011;40161;39.768;2.722;2023-04-24T20:03:21;9.15;;;5.22;;
54247;SDS011;40161;39.768;2.722;2023-04-24T20:05:47;8.52;;;3.75;;
54247;SDS011;40161;39.768;2.722;2023-04-24T20:08:12;7.20;;;3.78;;
54247;SDS011;40161;39.768;2.722;2023-04-24T20:10:38;7.85;;;3.30;;
54247;SDS011;40161;39.768;2.722;2023-04-24T20:13:03;7.43;;;3.67;;
54247;SDS011;40161;39.768;2.722;2023-04-24T20:15:29;6.22;;;3.10;;
54247;SDS011;40161;39.768;2.722;2023-04-24T20:17:56;5.63;;;2.80;;
54247;SDS011;40161;39.768;2.722;2023-04-24T20:20:22;4.93;;;2.50;;
54247;SDS011;40161;39.768;2.722;2023-04-24T20:22:48;12.30;;;6.18;;
54247;SDS011;40161;39.768;2.722;2023-04-24T20:25:13;7.72;;;4.00;;
54247;SDS011;40161;39.768;2.722;2023-04-24T20:27:39;7.53;;;3.85;;
54247;SDS011;40161;39.768;2.722;2023-04-24T20:30:05;7.65;;;3.83;;
54247;SDS011;40161;39.768;2.722;2023-04-24T20:32:37;6.28;;;2.60;;
54247;SDS011;40161;39.768;2.722;2023-04-24T20:35:03;5.93;;;2.47;;
54247;SDS011;40161;39.768;2.722;2023-04-24T20:37:29;5.53;;;2.25;;
54247;SDS011;40161;39.768;2.722;2023-04-24T20:39:55;3.33;;;1.70;;
54247;SDS011;40161;39.768;2.722;2023-04-24T20:42:21;4.00;;;1.45;;
54247;SDS011;40161;39.768;2.722;2023-04-24T20:44:46;4.78;;;2.25;;
54247;SDS011;40161;39.768;2.722;2023-04-24T20:47:12;6.35;;;2.80;;
54247;SDS011;40161;39.768;2.722;2023-04-24T20:49:38;7.32;;;3.67;;
54247;SDS011;40161;39.768;2.722;2023-04-24T20:52:03;7.63;;;3.05;;
54247;SDS011;40161;39.768;2.722;2023-04-24T20:54:30;10.63;;;4.15;;
54247;SDS011;40161;39.768;2.722;2023-04-24T20:56:55;9.48;;;3.85;;
54247;SDS011;40161;39.768;2.722;2023-04-24T20:59:22;10.57;;;4.50;;
54247;SDS011;40161;39.768;2.722;2023-04-24T22:01:34;5.53;;;2.53;;
54247;SDS011;40161;39.768;2.722;2023-04-24T22:04:00;4.85;;;2.17;;
54247;SDS011;40161;39.768;2.722;2023-04-24T22:06:28;5.35;;;2.20;;
54247;SDS011;40161;39.768;2.722;2023-04-24T22:12:20;10.43;;;4.85;;
54247;SDS011;40161;39.768;2.722;2023-04-24T22:17:45;20.23;;;10.82;;
54247;SDS011;40161;39.768;2.722;2023-04-24T22:20:14;17.83;;;9.43;;
54247;SDS011;40161;39.768;2.722;2023-04-24T22:22:41;11.80;;;5.75;;
54247;SDS011;40161;39.768;2.722;2023-04-24T22:25:06;8.63;;;4.15;;
54247;SDS011;40161;39.768;2.722;2023-04-24T22:27:32;7.95;;;3.20;;
54247;SDS011;40161;39.768;2.722;2023-04-24T22:32:49;3.92;;;1.90;;
54247;SDS011;40161;39.768;2.722;2023-04-24T22:35:15;4.43;;;1.40;;
